sensor_id;sensor_type;location;lat;lon;timestamp;P1;durP1;ratioP1;P2;durP2;ratioP2
31010;SDS011;26395;53.412;19.598;2022-08-19T12:25:23;7.60;;;5.70;;
31010;SDS011;26395;53.412;19.598;2022-08-19T12:40:27;11.30;;;6.00;;
31010;SDS011;26395;53.412;19.598;2022-08-19T12:55:31;10.50;;;6.10;;
31010;SDS011;26395;53.412;19.598;2022-08-19T13:10:35;8.80;;;5.50;;
31010;SDS011;26395;53.412;19.598;2022-08-19T13:25:39;8.70;;;5.40;;
31010;SDS011;26395;53.412;19.598;2022-08-19T13:40:42;10.10;;;6.30;;
31010;SDS011;26395;53.412;19.598;2022-08-19T13:55:47;10.70;;;5.70;;
31010;SDS011;26395;53.412;19.598;2022-08-19T14:10:52;14.40;;;6.90;;
31010;SDS011;26395;53.412;19.598;2022-08-19T14:26:10;8.20;;;6.80;;
31010;SDS011;26395;53.412;19.598;2022-08-19T14:41:17;12.60;;;7.80;;
31010;SDS011;26395;53.412;19.598;2022-08-19T14:56:24;9.20;;;6.40;;
31010;SDS011;26395;53.412;19.598;2022-08-19T15:11:30;11.20;;;6.90;;
31010;SDS011;26395;53.412;19.598;2022-08-19T15:26:36;9.80;;;6.40;;
31010;SDS011;26395;53.412;19.598;2022-08-19T15:41:39;11.50;;;7.40;;
31010;SDS011;26395;53.412;19.598;2022-08-19T15:56:47;11.70;;;7.00;;
31010;SDS011;26395;53.412;19.598;2022-08-19T16:12:11;12.00;;;7.40;;
31010;SDS011;26395;53.412;19.598;2022-08-19T16:27:15;10.50;;;7.40;;
31010;SDS011;26395;53.412;19.598;2022-08-19T16:42:18;9.20;;;7.40;;
31010;SDS011;26395;53.412;19.598;2022-08-19T16:57:22;10.50;;;8.20;;
31010;SDS011;26395;53.412;19.598;2022-08-19T17:12:26;14.90;;;8.20;;
31010;SDS011;26395;53.412;19.598;2022-08-19T17:27:34;10.30;;;7.80;;
31010;SDS011;26395;53.412;19.598;2022-08-19T17:42:38;10.90;;;5.50;;
31010;SDS011;26395;53.412;19.598;2022-08-19T17:57:43;12.40;;;6.20;;
31010;SDS011;26395;53.412;19.598;2022-08-19T18:12:49;12.30;;;5.80;;
31010;SDS011;26395;53.412;19.598;2022-08-19T18:27:55;7.50;;;5.10;;
31010;SDS011;26395;53.412;19.598;2022-08-19T18:43:00;13.40;;;7.30;;
31010;SDS011;26395;53.412;19.598;2022-08-19T18:58:15;7.90;;;5.30;;
31010;SDS011;26395;53.412;19.598;2022-08-19T19:13:19;16.80;;;6.80;;
31010;SDS011;26395;53.412;19.598;2022-08-19T19:28:22;9.40;;;5.00;;
31010;SDS011;26395;53.412;19.598;2022-08-19T19:58:43;11.00;;;6.20;;
31010;SDS011;26395;53.412;19.598;2022-08-19T20:13:46;7.30;;;5.50;;
31010;SDS011;26395;53.412;19.598;2022-08-19T20:28:50;9.70;;;5.60;;
31010;SDS011;26395;53.412;19.598;2022-08-19T20:44:14;9.00;;;4.30;;
31010;SDS011;26395;53.412;19.598;2022-08-19T20:59:17;9.50;;;4.80;;
31010;SDS011;26395;53.412;19.598;2022-08-19T21:14:23;9.90;;;4.60;;
31010;SDS011;26395;53.412;19.598;2022-08-19T21:29:27;8.40;;;4.50;;
31010;SDS011;26395;53.412;19.598;2022-08-19T21:44:31;12.60;;;5.30;;
31010;SDS011;26395;53.412;19.598;2022-08-19T22:14:45;9.80;;;5.20;;
31010;SDS011;26395;53.412;19.598;2022-08-19T22:29:49;7.50;;;5.80;;
31010;SDS011;26395;53.412;19.598;2022-08-19T22:44:55;12.20;;;5.70;;
31010;SDS011;26395;53.412;19.598;2022-08-19T23:00:00;14.80;;;6.30;;
31010;SDS011;26395;53.412;19.598;2022-08-19T23:15:09;14.30;;;7.20;;
31010;SDS011;26395;53.412;19.598;2022-08-19T23:30:21;18.60;;;8.40;;
31010;SDS011;26395;53.412;19.598;2022-08-19T23:45:31;16.50;;;9.70;;
